Time;durP1;ratioP1;P1;durP2;ratioP2;P2;SDS_P1;SDS_P2;PMS_P1;PMS_P2;Temp;Humidity;BMP_temperature;BMP_pressure;BME280_temperature;BME280_humidity;BME280_pressure;Samples;Min_cycle;Max_cycle;Signal;HPM_P1;HPM_P2
2022/12/15 00:40:28;;;;;;;32.85;15.43;;;;;;;4.37;74.25;97780.19;4380303;80;44154;-83
2022/12/15 01:24:28;;;;;;;48.25;22.60;;;;;;;4.73;72.61;97828.61;4363572;81;28513;-82
2022/12/15 01:30:29;;;;;;;46.02;22.73;;;;;;;4.60;73.02;97843.41;4467316;78;28543;-85
2022/12/15 01:36:30;;;;;;;53.60;24.55;;;;;;;4.52;73.68;97853.84;4465726;78;44095;-85
2022/12/15 01:42:31;;;;;;;59.38;27.45;;;;;;;4.52;74.11;97843.70;4367970;81;28544;-86
2022/12/15 01:48:59;;;;;;;57.23;27.55;;;;;;;4.66;72.17;97849.20;4404545;81;28513;-86
2022/12/15 01:55:00;;;;;;;59.35;29.15;;;;;;;4.59;72.09;97853.77;4403909;81;28572;-85
2022/12/15 02:01:02;;;;;;;56.18;28.40;;;;;;;4.61;72.38;97867.66;4370470;81;28489;-82
2022/12/15 02:07:03;;;;;;;58.28;27.42;;;;;;;4.60;72.25;97863.38;4387996;81;28528;-82
2022/12/15 02:13:17;;;;;;;60.15;28.83;;;;;;;4.42;73.41;97872.17;4445047;79;28508;-83
2022/12/15 02:19:47;;;;;;;65.52;31.30;;;;;;;4.52;72.88;97873.81;4424733;80;28547;-84
2022/12/15 02:26:15;;;;;;;61.90;28.77;;;;;;;4.82;70.91;97881.08;4447137;78;43437;-84
2022/12/15 02:32:19;;;;;;;62.50;29.25;;;;;;;4.59;71.52;97885.21;4338085;81;28537;-86
2022/12/15 02:38:37;;;;;;;64.43;30.77;;;;;;;4.49;72.01;97902.70;4349133;80;28501;-85
2022/12/15 02:44:53;;;;;;;66.97;31.75;;;;;;;4.45;72.15;97908.48;4396620;80;28541;-87
2022/12/15 02:51:16;;;;;;;69.03;32.40;;;;;;;4.48;72.80;97913.06;4373731;80;28557;-83
2022/12/15 02:57:56;;;;;;;70.30;33.95;;;;;;;4.41;73.42;97921.11;4338203;80;44077;-81
2022/12/15 03:03:58;;;;;;;75.78;35.30;;;;;;;4.52;73.68;97922.22;4447565;80;43128;-81
2022/12/15 03:10:02;;;;;;;75.10;34.83;;;;;;;4.62;72.92;97925.20;4385728;80;28555;-83
2022/12/15 03:16:03;;;;;;;79.50;36.90;;;;;;;4.65;73.32;97923.95;4417422;78;43375;-82
2022/12/15 03:22:04;;;;;;;74.85;34.45;;;;;;;4.79;72.73;97922.80;4387204;80;28560;-81
2022/12/15 03:28:05;;;;;;;73.60;33.63;;;;;;;4.64;73.45;97932.98;4387698;80;28501;-81
2022/12/15 03:34:07;;;;;;;73.17;35.05;;;;;;;4.66;73.88;97940.22;4337620;81;28504;-81
2022/12/15 03:40:09;;;;;;;83.12;35.08;;;;;;;4.68;73.12;97935.48;4377448;81;28525;-83
2022/12/15 03:46:10;;;;;;;77.75;34.45;;;;;;;4.78;73.63;97948.31;4458571;78;28541;-82
2022/12/15 03:52:11;;;;;;;74.40;35.30;;;;;;;4.91;71.97;97960.69;4461319;80;28580;-82
2022/12/15 03:58:12;;;;;;;73.70;35.40;;;;;;;4.86;72.47;97973.33;4361317;80;28495;-83
2022/12/15 04:04:14;;;;;;;71.50;34.13;;;;;;;4.67;72.64;97970.63;4426021;78;28521;-82
2022/12/15 04:10:15;;;;;;;71.87;32.53;;;;;;;4.66;73.62;97978.83;4437615;80;28517;-80
2022/12/15 04:16:16;;;;;;;71.42;34.25;;;;;;;4.67;73.68;97982.61;4383412;80;28547;-81
2022/12/15 04:22:17;;;;;;;70.67;33.53;;;;;;;4.60;74.92;97995.99;4382594;80;28535;-82
2022/12/15 05:31:51;;;;;;;66.72;32.58;;;;;;;5.11;75.97;98051.05;4357349;81;28541;-77
2022/12/15 05:37:50;;;;;;;67.23;30.57;;;;;;;5.26;75.86;98070.19;4371363;81;28515;-77
2022/12/15 05:43:51;;;;;;;61.85;30.45;;;;;;;5.15;77.82;98088.20;4383332;78;32333;-79
2022/12/15 05:49:52;;;;;;;71.47;34.05;;;;;;;5.41;76.34;98095.66;4376228;81;28519;-78
2022/12/15 05:55:57;;;;;;;66.75;32.30;;;;;;;5.16;76.57;98107.98;4374401;80;28547;-78
2022/12/15 06:01:58;;;;;;;64.27;31.53;;;;;;;5.26;77.08;98115.50;4358127;81;36755;-77
2022/12/15 06:07:59;;;;;;;63.58;30.20;;;;;;;5.02;79.65;98122.46;4444998;78;28516;-79
2022/12/15 06:14:00;;;;;;;66.97;31.73;;;;;;;5.29;79.25;98131.05;4414007;79;28512;-79
2022/12/15 06:20:02;;;;;;;71.57;31.90;;;;;;;5.11;80.50;98147.80;4346188;80;28519;-82
2022/12/15 06:26:18;;;;;;;70.22;32.70;;;;;;;5.36;79.46;98162.13;4392473;81;28563;-80
2022/12/15 06:32:20;;;;;;;69.72;31.80;;;;;;;5.29;81.10;98171.52;4444610;78;28592;-80
2022/12/15 06:38:24;;;;;;;65.87;32.40;;;;;;;5.29;80.50;98191.02;4361086;80;29080;-86
2022/12/15 06:44:25;;;;;;;65.75;30.88;;;;;;;5.32;79.02;98200.43;4377558;79;28545;-87
2022/12/15 06:50:28;;;;;;;69.00;31.73;;;;;;;5.42;77.44;98215.92;4412270;80;28536;-87
2022/12/15 06:56:32;;;;;;;69.27;33.48;;;;;;;5.32;78.43;98219.09;4423707;80;28509;-87
2022/12/15 07:02:35;;;;;;;68.40;32.33;;;;;;;5.28;78.01;98236.53;4410959;80;28488;-86
2022/12/15 07:08:36;;;;;;;64.45;29.67;;;;;;;5.61;76.25;98244.78;4399544;80;28543;-86
2022/12/15 07:14:39;;;;;;;68.33;30.52;;;;;;;5.63;76.01;98244.06;4405191;80;28526;-87
2022/12/15 07:20:41;;;;;;;70.03;32.13;;;;;;;5.65;76.00;98258.50;4378168;80;28594;-87
2022/12/15 07:26:43;;;;;;;67.00;31.95;;;;;;;5.73;74.98;98264.89;4420901;80;28505;-87
2022/12/15 07:32:44;;;;;;;66.10;30.75;;;;;;;5.79;74.30;98268.03;4439778;80;28495;-88
2022/12/15 07:38:49;;;;;;;66.53;29.77;;;;;;;5.82;74.42;98281.43;4395844;80;28531;-88
2022/12/15 07:44:50;;;;;;;64.00;31.27;;;;;;;5.67;76.42;98287.92;4360035;80;28490;-88
2022/12/15 07:51:01;;;;;;;63.33;30.88;;;;;;;5.82;77.13;98304.94;4394505;79;28489;-88
2022/12/15 07:57:06;;;;;;;66.10;30.60;;;;;;;5.94;76.69;98318.39;4321092;81;28651;-87
2022/12/15 08:03:07;;;;;;;74.10;33.30;;;;;;;6.10;75.36;98335.73;4389167;80;28515;-88
2022/12/15 08:09:09;;;;;;;66.22;29.07;;;;;;;6.21;72.59;98329.38;4339900;79;28535;-87
2022/12/15 08:15:16;;;;;;;63.30;29.82;;;;;;;6.12;72.03;98345.66;4388906;79;28513;-87
2022/12/15 08:21:18;;;;;;;58.35;28.38;;;;;;;6.33;70.73;98364.98;4385682;80;28557;-87
2022/12/15 08:27:23;;;;;;;63.73;28.32;;;;;;;6.35;69.80;98360.23;4389295;80;28539;-88
2022/12/15 08:33:26;;;;;;;57.85;26.12;;;;;;;6.34;69.65;98384.47;4337159;81;28563;-87
2022/12/15 08:39:29;;;;;;;55.52;26.15;;;;;;;6.34;68.85;98399.16;4367436;81;28557;-86
2022/12/15 08:45:36;;;;;;;53.83;25.27;;;;;;;6.38;69.16;98425.20;4358758;79;28537;-87
2022/12/15 08:51:41;;;;;;;59.00;26.70;;;;;;;6.45;67.69;98419.00;4349705;80;28525;-87
2022/12/15 08:57:43;;;;;;;57.38;24.70;;;;;;;6.53;66.72;98432.08;4412140;79;28613;-86
2022/12/15 09:03:46;;;;;;;52.08;24.75;;;;;;;6.58;66.38;98422.07;4205624;84;28564;-87
2022/12/15 09:09:53;;;;;;;58.15;26.93;;;;;;;5.99;66.97;98435.15;4261536;83;28565;-87
2022/12/15 09:16:00;;;;;;;52.85;26.45;;;;;;;6.63;66.41;98440.41;4223726;83;28503;-87
2022/12/15 09:22:06;;;;;;;52.98;25.55;;;;;;;6.59;66.24;98435.72;4226276;83;28545;-88
2022/12/15 09:28:12;;;;;;;52.77;25.30;;;;;;;6.48;65.50;98440.75;4236963;82;34383;-88
2022/12/15 09:34:14;;;;;;;54.67;25.92;;;;;;;6.50;65.75;98439.17;4326531;81;28532;-88
2022/12/15 09:40:27;;;;;;;52.00;24.72;;;;;;;6.50;65.54;98432.49;4313517;82;28509;-88
2022/12/15 09:46:39;;;;;;;52.00;22.87;;;;;;;6.67;64.51;98444.80;4329519;81;28508;-87
2022/12/15 09:52:51;;;;;;;53.68;24.67;;;;;;;6.74;64.23;98444.19;4378372;81;28492;-87
2022/12/15 09:59:24;;;;;;;52.38;23.38;;;;;;;6.78;64.80;98442.73;4355421;81;28576;-87
2022/12/15 10:06:02;;;;;;;55.03;25.43;;;;;;;6.87;63.72;98442.42;4359648;81;28525;-87
2022/12/15 10:12:06;;;;;;;56.58;25.27;;;;;;;7.14;63.48;98445.64;4378851;81;28545;-86
2022/12/15 10:18:33;;;;;;;55.40;23.87;;;;;;;7.15;62.92;98456.63;4364392;80;28585;-86
2022/12/15 10:24:35;;;;;;;50.67;24.32;;;;;;;6.97;62.92;98439.55;4356444;81;28592;-90
2022/12/15 10:30:45;;;;;;;49.50;22.50;;;;;;;6.76;62.56;98454.67;4340649;81;28570;-88
2022/12/15 10:36:58;;;;;;;50.28;23.62;;;;;;;6.84;62.42;98458.39;4382386;81;28550;-89
2022/12/15 10:43:14;;;;;;;44.05;22.07;;;;;;;6.62;62.58;98465.48;4389566;80;28527;-88
2022/12/15 10:55:53;;;;;;;49.13;22.75;;;;;;;5.43;66.34;98452.16;4167222;81;28477;-88
2022/12/15 11:02:23;;;;;;;48.73;23.13;;;;;;;6.37;63.64;98446.27;4367318;80;28548;-88
2022/12/15 11:08:30;;;;;;;51.77;23.42;;;;;;;6.87;63.06;98466.47;4243272;82;28527;-87
2022/12/15 11:14:46;;;;;;;49.42;22.98;;;;;;;7.08;62.16;98485.28;4227079;82;28528;-87
2022/12/15 11:21:11;;;;;;;53.13;24.55;;;;;;;6.95;62.00;98508.44;4265022;82;28629;-89
2022/12/15 11:27:29;;;;;;;50.00;24.07;;;;;;;6.98;62.57;98520.02;4323156;80;28561;-87
2022/12/15 11:33:30;;;;;;;51.63;22.15;;;;;;;7.21;63.35;98521.23;4360757;81;28552;-88
2022/12/15 11:39:52;;;;;;;50.83;24.43;;;;;;;7.11;62.33;98508.39;4391937;81;28531;-88
2022/12/15 11:46:29;;;;;;;47.05;22.37;;;;;;;6.98;62.89;98516.02;4338849;80;28492;-88
2022/12/15 11:52:51;;;;;;;49.90;22.67;;;;;;;7.22;62.16;98498.80;4306033;81;28508;-89
2022/12/15 11:59:16;;;;;;;46.42;22.35;;;;;;;6.86;62.45;98515.61;4278595;81;28554;-87
2022/12/15 12:05:27;;;;;;;51.83;22.82;;;;;;;6.97;62.39;98517.05;4317365;82;28470;-87
2022/12/15 12:12:10;;;;;;;52.27;25.40;;;;;;;7.01;62.72;98525.45;4335973;81;28557;-87
2022/12/15 12:18:28;;;;;;;47.65;23.47;;;;;;;7.31;63.01;98514.05;4314463;81;28514;-88
2022/12/15 12:31:39;;;;;;;53.85;25.80;;;;;;;7.01;62.25;98540.66;4302404;81;28539;-87
2022/12/15 12:37:44;;;;;;;56.18;25.88;;;;;;;6.74;63.16;98533.70;4317858;82;28527;-86
2022/12/15 12:43:50;;;;;;;63.63;27.95;;;;;;;7.25;61.50;98539.82;4324891;80;28555;-86
2022/12/15 12:49:58;;;;;;;58.83;27.60;;;;;;;7.10;62.56;98534.83;4394097;80;28541;-86
2022/12/15 12:55:59;;;;;;;57.85;27.30;;;;;;;7.07;62.65;98523.22;4383787;80;28547;-86
2022/12/15 13:02:20;;;;;;;57.15;27.17;;;;;;;6.80;63.66;98536.84;4457277;78;28532;-88
2022/12/15 13:08:27;;;;;;;65.12;28.90;;;;;;;6.86;63.47;98527.63;4442994;78;28581;-88
2022/12/15 13:14:32;;;;;;;56.80;26.02;;;;;;;6.99;63.38;98530.20;4298021;80;28556;-88
2022/12/15 13:20:45;;;;;;;60.73;27.05;;;;;;;6.76;63.50;98553.53;4418846;80;28490;-88
2022/12/15 14:09:12;;;;;;;63.63;28.02;;;;;;;6.80;64.68;98559.55;3808876;92;28502;-87
2022/12/15 14:22:38;;;;;;;58.75;26.97;;;;;;;6.44;65.08;98581.06;3857868;91;28647;-86
2022/12/15 14:42:49;;;;;;;66.20;28.92;;;;;;;6.59;65.71;98631.52;3832391;91;28590;-86
2022/12/15 14:49:08;;;;;;;60.98;28.47;;;;;;;6.61;65.14;98652.17;3971987;86;28518;-87
2022/12/15 14:55:46;;;;;;;69.35;29.35;;;;;;;6.14;66.37;98649.70;3893668;87;28531;-87
2022/12/15 15:02:13;;;;;;;62.67;27.85;;;;;;;6.20;65.93;98651.55;3952530;87;28759;-86
2022/12/15 15:08:30;;;;;;;69.15;29.32;;;;;;;6.23;66.85;98659.12;4031846;86;28546;-88
2022/12/15 15:14:38;;;;;;;69.05;29.42;;;;;;;6.33;67.01;98657.34;4062144;85;28480;-87
2022/12/15 15:20:39;;;;;;;64.32;29.42;;;;;;;6.37;66.71;98651.07;4054066;86;28567;-87
2022/12/15 15:26:40;;;;;;;60.25;27.82;;;;;;;6.24;66.94;98647.41;3995125;85;28531;-87
2022/12/15 15:32:58;;;;;;;65.62;27.87;;;;;;;6.10;66.76;98645.84;4034913;86;28516;-87
2022/12/15 15:39:01;;;;;;;68.65;30.25;;;;;;;6.18;67.03;98645.61;4065646;86;28509;-88
2022/12/15 15:45:17;;;;;;;;;;;;;;;;;;;;;
2022/12/15 15:51:21;;;;;;;70.37;31.05;;;;;;;6.17;67.24;98665.83;4142671;83;28532;-89
2022/12/15 15:57:28;;;;;;;61.53;27.13;;;;;;;6.26;66.91;98673.41;4160969;83;28560;-88
2022/12/15 16:03:39;;;;;;;44.58;19.07;;;;;;;6.09;66.92;98680.23;4103724;84;28578;-87
2022/12/15 16:09:39;;;;;;;59.35;25.40;;;;;;;5.98;68.12;98683.83;4105106;85;28537;-86
2022/12/15 16:15:38;;;;;;;59.42;26.05;;;;;;;5.90;68.28;98685.91;4115913;84;28572;-87
2022/12/15 16:21:40;;;;;;;62.10;26.15;;;;;;;5.73;69.09;98683.68;4136592;83;28585;-85
2022/12/15 16:27:44;;;;;;;58.23;25.32;;;;;;;5.62;70.51;98665.64;4120139;84;28625;-88
2022/12/15 16:33:45;;;;;;;59.60;26.02;;;;;;;5.44;70.49;98663.09;4124450;84;28527;-88
2022/12/15 16:39:52;;;;;;;58.20;24.72;;;;;;;5.53;72.21;98662.39;4107998;84;28479;-86
2022/12/15 16:45:54;;;;;;;56.20;23.85;;;;;;;5.82;70.63;98677.09;4138378;84;28557;-86
2022/12/15 16:51:56;;;;;;;56.18;24.47;;;;;;;5.57;71.02;98664.44;4097699;84;28504;-88
2022/12/15 16:58:00;;;;;;;65.75;26.52;;;;;;;5.74;70.74;98658.64;4128296;84;28601;-84
2022/12/15 17:04:01;;;;;;;59.88;24.37;;;;;;;6.04;69.43;98665.35;4137894;83;28505;-82
2022/12/15 17:10:05;;;;;;;51.80;25.10;;;;;;;5.78;69.82;98678.55;4135224;84;28572;-84
2022/12/15 17:16:10;;;;;;;58.33;25.05;;;;;;;5.80;69.26;98680.49;4145477;84;28548;-81
2022/12/15 17:22:13;;;;;;;58.07;25.43;;;;;;;5.40;71.70;98681.34;4143230;84;28531;-83
2022/12/15 17:28:20;;;;;;;63.23;25.88;;;;;;;5.57;71.29;98681.77;4162897;82;28483;-83
2022/12/15 17:34:25;;;;;;;60.33;23.85;;;;;;;5.53;71.94;98679.19;4139912;84;28547;-82
2022/12/15 17:40:27;;;;;;;58.28;26.00;;;;;;;5.53;71.09;98662.39;4141793;83;28589;-84
2022/12/15 17:46:28;;;;;;;64.97;26.90;;;;;;;4.82;73.72;98666.78;4144169;84;28537;-82
2022/12/15 17:52:33;;;;;;;62.48;28.52;;;;;;;4.98;74.75;98644.26;4150733;83;28600;-83
2022/12/15 17:58:33;;;;;;;68.85;29.55;;;;;;;4.37;79.97;98635.84;4119163;83;28543;-80
2022/12/15 18:04:34;;;;;;;64.92;28.92;;;;;;;4.63;80.57;98640.41;4092282;84;28529;-82
2022/12/15 18:10:37;;;;;;;71.55;32.08;;;;;;;4.46;80.72;98633.31;4110840;84;28498;-81
2022/12/15 18:16:39;;;;;;;67.30;30.05;;;;;;;4.47;82.25;98633.62;4117146;84;28539;-81
2022/12/15 18:22:40;;;;;;;65.30;32.30;;;;;;;4.43;83.05;98651.03;4086484;84;28614;-82
2022/12/15 18:28:42;;;;;;;69.85;31.30;;;;;;;4.63;82.39;98648.40;4101516;84;28501;-81
2022/12/15 18:34:45;;;;;;;73.28;32.65;;;;;;;4.01;83.73;98669.19;4080757;84;28525;-80
2022/12/15 18:40:49;;;;;;;71.42;30.25;;;;;;;4.78;81.57;98679.38;4119023;84;28490;-82
2022/12/15 18:46:50;;;;;;;70.03;30.92;;;;;;;5.09;78.71;98681.98;4140911;83;28541;-81
2022/12/15 18:52:58;;;;;;;74.47;33.15;;;;;;;4.92;80.43;98686.88;4129735;84;28555;-83
2022/12/15 18:58:59;;;;;;;70.05;31.75;;;;;;;4.80;79.91;98695.47;4122168;84;28528;-83
2022/12/15 19:05:01;;;;;;;72.70;32.45;;;;;;;5.09;78.66;98690.78;4154186;83;28505;-81
2022/12/15 19:11:08;;;;;;;76.10;30.80;;;;;;;4.86;78.39;98689.84;4141990;84;28592;-82
2022/12/15 19:23:31;;;;;;;73.05;33.67;;;;;;;4.28;82.84;98651.19;4094342;84;28580;-88
2022/12/15 19:29:38;;;;;;;82.55;36.40;;;;;;;4.08;85.15;98651.12;4149313;83;28563;-82
2022/12/15 19:35:42;;;;;;;79.37;34.20;;;;;;;4.08;86.03;98643.94;4157895;84;28522;-85
2022/12/15 19:41:43;;;;;;;71.55;31.97;;;;;;;3.43;88.40;98646.88;4118169;84;28571;-86
2022/12/15 19:47:45;;;;;;;71.92;31.10;;;;;;;4.11;85.45;98647.53;4130985;83;28591;-79
2022/12/15 19:53:48;;;;;;;68.25;30.80;;;;;;;3.78;85.17;98666.81;4145276;84;28655;-77
2022/12/15 19:59:50;;;;;;;64.27;28.30;;;;;;;3.97;82.06;98649.83;4069020;85;28561;-83
2022/12/15 20:05:52;;;;;;;65.55;29.77;;;;;;;3.94;81.27;98652.37;4036288;85;28495;-84
2022/12/15 20:11:53;;;;;;;59.98;26.87;;;;;;;3.72;83.89;98653.80;4075722;84;28567;-79
2022/12/15 20:17:57;;;;;;;62.83;27.42;;;;;;;3.81;81.68;98641.67;4086234;84;28511;-81
2022/12/15 20:24:01;;;;;;;65.12;29.40;;;;;;;4.16;79.23;98642.94;4063085;85;28589;-82
2022/12/15 20:30:08;;;;;;;70.35;32.08;;;;;;;4.54;76.56;98642.45;3951326;87;28630;-82
2022/12/15 20:36:16;;;;;;;70.50;30.97;;;;;;;3.76;79.33;98632.45;4080005;85;28593;-84
2022/12/15 20:42:18;;;;;;;57.60;26.45;;;;;;;4.24;79.71;98627.33;3944012;88;28563;-81
2022/12/15 20:48:20;;;;;;;69.58;31.00;;;;;;;3.45;79.65;98616.44;4011556;86;28602;-83
2022/12/15 20:54:21;;;;;;;65.10;30.05;;;;;;;3.59;80.68;98611.19;4018454;86;28485;-83
2022/12/15 21:00:22;;;;;;;63.65;29.42;;;;;;;3.25;82.08;98623.45;4007446;86;28578;-86
2022/12/15 21:06:24;;;;;;;62.53;27.45;;;;;;;3.58;81.12;98619.66;4019025;85;28542;-81
2022/12/15 21:12:26;;;;;;;61.08;26.42;;;;;;;3.15;81.75;98620.63;4031104;86;28631;-81
2022/12/15 21:18:27;;;;;;;54.03;24.07;;;;;;;3.53;79.96;98592.02;4070446;85;28544;-81
2022/12/15 21:24:29;;;;;;;46.50;21.55;;;;;;;3.73;79.29;98602.78;4079378;85;28481;-80
2022/12/15 21:30:30;;;;;;;53.95;22.27;;;;;;;3.25;78.88;98602.20;4083994;84;28528;-81
2022/12/15 21:36:31;;;;;;;53.13;23.38;;;;;;;3.20;79.64;98580.20;3973008;87;28606;-80
2022/12/15 21:42:34;;;;;;;50.43;24.10;;;;;;;3.48;79.19;98570.02;4014459;87;28472;-81
2022/12/15 21:54:56;;;;;;;59.85;25.27;;;;;;;3.39;78.93;98556.60;3956775;87;28575;-81
2022/12/15 22:00:59;;;;;;;57.98;26.40;;;;;;;3.28;78.72;98548.16;4017784;86;28585;-82
2022/12/15 22:07:00;;;;;;;56.37;25.75;;;;;;;3.83;75.74;98546.05;4162545;82;28551;-83
2022/12/15 22:13:02;;;;;;;51.55;23.35;;;;;;;3.72;78.52;98538.66;4158545;82;28510;-83
2022/12/15 22:19:05;;;;;;;53.20;22.80;;;;;;;3.32;77.85;98532.13;4153293;83;44077;-82
2022/12/15 22:25:07;;;;;;;47.50;21.87;;;;;;;3.26;78.06;98536.89;4124921;83;28544;-82
2022/12/15 22:31:08;;;;;;;55.20;24.40;;;;;;;3.69;74.07;98548.33;4153283;83;28526;-80
2022/12/15 22:37:09;;;;;;;51.77;23.02;;;;;;;3.46;77.06;98546.80;4128351;84;28536;-83
2022/12/15 22:43:26;;;;;;;51.08;22.30;;;;;;;2.98;78.17;98556.84;4142994;83;28556;-82
2022/12/15 22:49:36;;;;;;;50.90;22.37;;;;;;;3.52;77.56;98557.16;4163071;83;28573;-80
2022/12/15 22:55:37;;;;;;;50.25;22.55;;;;;;;3.52;77.08;98548.69;4168062;83;28516;-80
2022/12/15 23:01:38;;;;;;;51.63;23.07;;;;;;;3.49;77.73;98519.86;4137892;84;44048;-80
2022/12/15 23:07:39;;;;;;;52.03;22.52;;;;;;;2.86;81.37;98529.98;4158938;83;28558;-81
2022/12/15 23:13:40;;;;;;;54.05;23.55;;;;;;;2.41;83.34;98513.83;4173789;83;28475;-81
2022/12/15 23:19:43;;;;;;;54.38;24.57;;;;;;;3.34;80.19;98496.07;4157040;84;28537;-81
2022/12/15 23:25:46;;;;;;;57.83;24.35;;;;;;;3.28;78.53;98482.23;4157025;83;28581;-81
2022/12/15 23:31:48;;;;;;;51.60;21.57;;;;;;;2.88;82.44;98474.36;4158357;83;44167;-81
2022/12/15 23:37:49;;;;;;;48.35;21.57;;;;;;;3.24;79.96;98473.83;4167570;83;28491;-81
2022/12/15 23:43:51;;;;;;;50.52;21.93;;;;;;;3.85;75.03;98466.89;4162742;82;44411;-81
2022/12/15 23:49:52;;;;;;;57.88;23.75;;;;;;;2.78;80.26;98476.05;4174893;82;28525;-81
2022/12/15 23:55:53;;;;;;;49.38;22.17;;;;;;;2.69;83.52;98470.56;4138483;83;28476;-83
